sensor_id;sensor_type;location;lat;lon;timestamp;pressure;altitude;pressure_sealevel;temperature;humidity
55590;BME280;41452;42.780;23.116;2024-02-21T00:01:52;94984.78;;;4.35;100.00
55590;BME280;41452;42.780;23.116;2024-02-21T00:04:17;94994.03;;;4.38;100.00
55590;BME280;41452;42.780;23.116;2024-02-21T00:06:42;94993.84;;;4.40;100.00
55590;BME280;41452;42.780;23.116;2024-02-21T00:09:08;95023.31;;;4.55;100.00
55590;BME280;41452;42.780;23.116;2024-02-21T00:11:34;94984.50;;;4.30;100.00
55590;BME280;41452;42.780;23.116;2024-02-21T00:14:00;95006.78;;;4.48;100.00
55590;BME280;41452;42.780;23.116;2024-02-21T00:16:25;95007.59;;;4.48;100.00
55590;BME280;41452;42.780;23.116;2024-02-21T00:18:51;94965.47;;;4.30;100.00
55590;BME280;41452;42.780;23.116;2024-02-21T00:21:16;94953.66;;;4.27;100.00
55590;BME280;41452;42.780;23.116;2024-02-21T00:23:44;94999.91;;;4.55;100.00
55590;BME280;41452;42.780;23.116;2024-02-21T00:26:12;95003.66;;;4.52;100.00
55590;BME280;41452;42.780;23.116;2024-02-21T00:28:38;94952.22;;;4.25;100.00
55590;BME280;41452;42.780;23.116;2024-02-21T00:31:03;94948.16;;;4.22;100.00
55590;BME280;41452;42.780;23.116;2024-02-21T00:33:28;95002.13;;;4.58;100.00
55590;BME280;41452;42.780;23.116;2024-02-21T00:35:54;94997.75;;;4.59;100.00
55590;BME280;41452;42.780;23.116;2024-02-21T00:38:19;94996.59;;;4.61;100.00
55590;BME280;41452;42.780;23.116;2024-02-21T00:40:45;94968.81;;;4.38;100.00
55590;BME280;41452;42.780;23.116;2024-02-21T00:43:11;94946.81;;;4.26;100.00
55590;BME280;41452;42.780;23.116;2024-02-21T00:45:36;94957.00;;;4.36;100.00
55590;BME280;41452;42.780;23.116;2024-02-21T00:48:02;94991.09;;;4.56;100.00
55590;BME280;41452;42.780;23.116;2024-02-21T00:50:27;94991.91;;;4.56;100.00
55590;BME280;41452;42.780;23.116;2024-02-21T00:52:53;94976.38;;;4.48;100.00
55590;BME280;41452;42.780;23.116;2024-02-21T00:55:18;94932.41;;;4.24;100.00
55590;BME280;41452;42.780;23.116;2024-02-21T00:57:43;94925.78;;;4.21;100.00
55590;BME280;41452;42.780;23.116;2024-02-21T01:00:09;94959.88;;;4.41;100.00
55590;BME280;41452;42.780;23.116;2024-02-21T01:02:35;94985.16;;;4.47;100.00
55590;BME280;41452;42.780;23.116;2024-02-21T01:07:25;94980.25;;;4.52;100.00
55590;BME280;41452;42.780;23.116;2024-02-21T01:09:50;94957.09;;;4.43;100.00
55590;BME280;41452;42.780;23.116;2024-02-21T01:12:16;94967.78;;;4.48;100.00
55590;BME280;41452;42.780;23.116;2024-02-21T01:14:42;94955.00;;;4.38;100.00
55590;BME280;41452;42.780;23.116;2024-02-21T01:17:08;94916.22;;;4.13;100.00
55590;BME280;41452;42.780;23.116;2024-02-21T01:19:33;94970.38;;;4.48;100.00
55590;BME280;41452;42.780;23.116;2024-02-21T01:21:58;94972.31;;;4.46;100.00
55590;BME280;41452;42.780;23.116;2024-02-21T01:24:24;94972.53;;;4.44;100.00
55590;BME280;41452;42.780;23.116;2024-02-21T01:26:49;94966.31;;;4.45;100.00
55590;BME280;41452;42.780;23.116;2024-02-21T01:29:14;94972.31;;;4.46;100.00
55590;BME280;41452;42.780;23.116;2024-02-21T01:31:40;94945.69;;;4.29;100.00
55590;BME280;41452;42.780;23.116;2024-02-21T01:34:05;94970.72;;;4.45;100.00
55590;BME280;41452;42.780;23.116;2024-02-21T01:36:31;94878.16;;;3.83;100.00
55590;BME280;41452;42.780;23.116;2024-02-21T01:38:56;94958.59;;;4.37;100.00
55590;BME280;41452;42.780;23.116;2024-02-21T01:41:21;94964.00;;;4.35;100.00
55590;BME280;41452;42.780;23.116;2024-02-21T01:43:47;94893.31;;;3.94;100.00
55590;BME280;41452;42.780;23.116;2024-02-21T01:46:12;94954.91;;;4.31;100.00
55590;BME280;41452;42.780;23.116;2024-02-21T01:48:38;94899.81;;;3.98;100.00
55590;BME280;41452;42.780;23.116;2024-02-21T01:51:04;94948.78;;;4.24;100.00
55590;BME280;41452;42.780;23.116;2024-02-21T01:53:32;94946.38;;;4.23;100.00
55590;BME280;41452;42.780;23.116;2024-02-21T01:55:58;94945.75;;;4.21;100.00
55590;BME280;41452;42.780;23.116;2024-02-21T01:58:23;94859.91;;;3.68;100.00
55590;BME280;41452;42.780;23.116;2024-02-21T02:00:50;94784.88;;;3.12;100.00
55590;BME280;41452;42.780;23.116;2024-02-21T02:03:16;94923.19;;;3.98;100.00
55590;BME280;41452;42.780;23.116;2024-02-21T02:05:49;94907.53;;;3.83;100.00
55590;BME280;41452;42.780;23.116;2024-02-21T02:08:16;94942.06;;;3.92;100.00
55590;BME280;41452;42.780;23.116;2024-02-21T02:10:42;94940.28;;;3.92;100.00
55590;BME280;41452;42.780;23.116;2024-02-21T02:13:08;94909.09;;;3.69;100.00
55590;BME280;41452;42.780;23.116;2024-02-21T02:15:43;94935.63;;;3.88;100.00
55590;BME280;41452;42.780;23.116;2024-02-21T02:18:10;94936.59;;;3.87;100.00
55590;BME280;41452;42.780;23.116;2024-02-21T02:20:36;94904.63;;;3.63;100.00
55590;BME280;41452;42.780;23.116;2024-02-21T02:23:11;94928.88;;;3.78;100.00
55590;BME280;41452;42.780;23.116;2024-02-21T02:25:36;94938.81;;;3.75;100.00
55590;BME280;41452;42.780;23.116;2024-02-21T02:28:06;94874.78;;;3.36;100.00
55590;BME280;41452;42.780;23.116;2024-02-21T02:30:35;94926.81;;;3.66;100.00
55590;BME280;41452;42.780;23.116;2024-02-21T02:33:05;94873.66;;;3.30;100.00
55590;BME280;41452;42.780;23.116;2024-02-21T02:35:30;94917.94;;;3.60;100.00
55590;BME280;41452;42.780;23.116;2024-02-21T02:37:56;94862.00;;;3.26;100.00
55590;BME280;41452;42.780;23.116;2024-02-21T02:40:21;94842.66;;;3.05;100.00
55590;BME280;41452;42.780;23.116;2024-02-21T02:42:47;94898.88;;;3.45;100.00
55590;BME280;41452;42.780;23.116;2024-02-21T02:45:15;94919.28;;;3.56;100.00
55590;BME280;41452;42.780;23.116;2024-02-21T02:47:40;94862.72;;;3.20;100.00
55590;BME280;41452;42.780;23.116;2024-02-21T02:50:06;94867.94;;;3.12;100.00
55590;BME280;41452;42.780;23.116;2024-02-21T02:52:32;94865.97;;;3.14;100.00
55590;BME280;41452;42.780;23.116;2024-02-21T02:54:57;94923.53;;;3.49;100.00
55590;BME280;41452;42.780;23.116;2024-02-21T02:57:23;94921.56;;;3.51;100.00
55590;BME280;41452;42.780;23.116;2024-02-21T02:59:49;94916.38;;;3.51;100.00
55590;BME280;41452;42.780;23.116;2024-02-21T03:02:15;94854.34;;;3.10;100.00
55590;BME280;41452;42.780;23.116;2024-02-21T03:04:40;94924.97;;;3.51;100.00
55590;BME280;41452;42.780;23.116;2024-02-21T03:07:06;94839.50;;;2.95;100.00
55590;BME280;41452;42.780;23.116;2024-02-21T03:09:31;94922.03;;;3.54;100.00
55590;BME280;41452;42.780;23.116;2024-02-21T03:11:57;94928.50;;;3.58;100.00
55590;BME280;41452;42.780;23.116;2024-02-21T03:14:30;94870.13;;;3.23;100.00
55590;BME280;41452;42.780;23.116;2024-02-21T03:16:56;94930.25;;;3.66;100.00
55590;BME280;41452;42.780;23.116;2024-02-21T03:19:21;94933.13;;;3.71;100.00
55590;BME280;41452;42.780;23.116;2024-02-21T03:21:47;94934.13;;;3.70;100.00
55590;BME280;41452;42.780;23.116;2024-02-21T03:24:13;94853.00;;;3.14;100.00
55590;BME280;41452;42.780;23.116;2024-02-21T03:26:38;94888.91;;;3.33;100.00
55590;BME280;41452;42.780;23.116;2024-02-21T03:29:04;94935.63;;;3.65;100.00
55590;BME280;41452;42.780;23.116;2024-02-21T03:31:29;94910.72;;;3.47;100.00
55590;BME280;41452;42.780;23.116;2024-02-21T03:33:54;94874.06;;;3.19;100.00
55590;BME280;41452;42.780;23.116;2024-02-21T03:36:20;94933.94;;;3.49;100.00
55590;BME280;41452;42.780;23.116;2024-02-21T03:38:45;94935.19;;;3.53;100.00
55590;BME280;41452;42.780;23.116;2024-02-21T03:41:10;94861.97;;;3.03;100.00
55590;BME280;41452;42.780;23.116;2024-02-21T03:43:37;94891.75;;;3.15;100.00
55590;BME280;41452;42.780;23.116;2024-02-21T03:46:03;94932.16;;;3.41;100.00
55590;BME280;41452;42.780;23.116;2024-02-21T03:48:28;94931.03;;;3.43;100.00
55590;BME280;41452;42.780;23.116;2024-02-21T03:50:54;94937.50;;;3.48;100.00
55590;BME280;41452;42.780;23.116;2024-02-21T03:53:19;94927.03;;;3.33;100.00
55590;BME280;41452;42.780;23.116;2024-02-21T03:55:44;94921.22;;;3.31;100.00
55590;BME280;41452;42.780;23.116;2024-02-21T03:58:10;94947.09;;;3.47;100.00
55590;BME280;41452;42.780;23.116;2024-02-21T04:00:35;94910.53;;;3.26;100.00
55590;BME280;41452;42.780;23.116;2024-02-21T04:03:00;94916.06;;;3.22;100.00
55590;BME280;41452;42.780;23.116;2024-02-21T04:05:26;94921.22;;;3.31;100.00
55590;BME280;41452;42.780;23.116;2024-02-21T04:07:51;94881.47;;;2.99;100.00
55590;BME280;41452;42.780;23.116;2024-02-21T04:10:17;94943.72;;;3.38;100.00
55590;BME280;41452;42.780;23.116;2024-02-21T04:12:42;94946.94;;;3.40;100.00
55590;BME280;41452;42.780;23.116;2024-02-21T04:15:08;94931.47;;;3.24;100.00
55590;BME280;41452;42.780;23.116;2024-02-21T04:17:34;94939.69;;;3.36;100.00
55590;BME280;41452;42.780;23.116;2024-02-21T04:20:04;94945.34;;;3.39;100.00
55590;BME280;41452;42.780;23.116;2024-02-21T04:22:31;94940.63;;;3.43;100.00
55590;BME280;41452;42.780;23.116;2024-02-21T04:25:02;94931.06;;;3.35;100.00
55590;BME280;41452;42.780;23.116;2024-02-21T04:27:27;94939.94;;;3.49;100.00
55590;BME280;41452;42.780;23.116;2024-02-21T04:29:53;94951.13;;;3.50;100.00
55590;BME280;41452;42.780;23.116;2024-02-21T04:32:18;94957.94;;;3.51;100.00
55590;BME280;41452;42.780;23.116;2024-02-21T04:34:44;94959.91;;;3.49;100.00
55590;BME280;41452;42.780;23.116;2024-02-21T04:37:09;94897.81;;;3.08;100.00
55590;BME280;41452;42.780;23.116;2024-02-21T04:39:35;94902.94;;;3.16;100.00
55590;BME280;41452;42.780;23.116;2024-02-21T04:42:00;94935.00;;;3.31;100.00
55590;BME280;41452;42.780;23.116;2024-02-21T04:44:26;94950.88;;;3.36;100.00
55590;BME280;41452;42.780;23.116;2024-02-21T04:46:51;94912.69;;;3.14;100.00
55590;BME280;41452;42.780;23.116;2024-02-21T04:49:17;94959.75;;;3.42;100.00
55590;BME280;41452;42.780;23.116;2024-02-21T04:51:42;94958.97;;;3.41;100.00
55590;BME280;41452;42.780;23.116;2024-02-21T04:54:08;94929.84;;;3.23;100.00
55590;BME280;41452;42.780;23.116;2024-02-21T04:56:34;94960.56;;;3.42;100.00
55590;BME280;41452;42.780;23.116;2024-02-21T04:58:59;94964.16;;;3.41;100.00
55590;BME280;41452;42.780;23.116;2024-02-21T05:01:25;94962.53;;;3.40;100.00
55590;BME280;41452;42.780;23.116;2024-02-21T05:03:50;94965.47;;;3.37;100.00
55590;BME280;41452;42.780;23.116;2024-02-21T05:06:15;94949.94;;;3.29;100.00
55590;BME280;41452;42.780;23.116;2024-02-21T05:08:41;94939.28;;;3.16;100.00
55590;BME280;41452;42.780;23.116;2024-02-21T05:11:06;94926.81;;;3.11;100.00
55590;BME280;41452;42.780;23.116;2024-02-21T05:13:32;94933.75;;;3.19;100.00
55590;BME280;41452;42.780;23.116;2024-02-21T05:15:57;94953.50;;;3.28;100.00
55590;BME280;41452;42.780;23.116;2024-02-21T05:18:26;94944.91;;;3.28;100.00
55590;BME280;41452;42.780;23.116;2024-02-21T05:20:52;94927.13;;;3.16;100.00
55590;BME280;41452;42.780;23.116;2024-02-21T05:23:17;94959.94;;;3.40;100.00
55590;BME280;41452;42.780;23.116;2024-02-21T05:25:42;94959.94;;;3.40;100.00
55590;BME280;41452;42.780;23.116;2024-02-21T05:28:08;94952.84;;;3.34;100.00
55590;BME280;41452;42.780;23.116;2024-02-21T05:30:33;94932.25;;;3.24;100.00
55590;BME280;41452;42.780;23.116;2024-02-21T05:32:58;94958.59;;;3.45;100.00
55590;BME280;41452;42.780;23.116;2024-02-21T05:35:28;94969.28;;;3.50;100.00
55590;BME280;41452;42.780;23.116;2024-02-21T05:37:53;94928.91;;;3.16;100.00
55590;BME280;41452;42.780;23.116;2024-02-21T05:40:19;94925.50;;;3.15;100.00
55590;BME280;41452;42.780;23.116;2024-02-21T05:42:44;94953.47;;;3.36;100.00
55590;BME280;41452;42.780;23.116;2024-02-21T05:45:10;94972.06;;;3.48;100.00
55590;BME280;41452;42.780;23.116;2024-02-21T05:47:35;94954.81;;;3.32;100.00
55590;BME280;41452;42.780;23.116;2024-02-21T05:50:00;94973.38;;;3.44;100.00
55590;BME280;41452;42.780;23.116;2024-02-21T05:52:26;94964.81;;;3.35;100.00
55590;BME280;41452;42.780;23.116;2024-02-21T05:54:51;94920.69;;;3.04;100.00
55590;BME280;41452;42.780;23.116;2024-02-21T05:57:20;94924.56;;;3.08;100.00
55590;BME280;41452;42.780;23.116;2024-02-21T05:59:45;94976.97;;;3.43;100.00
55590;BME280;41452;42.780;23.116;2024-02-21T06:02:10;94986.19;;;3.46;100.00
55590;BME280;41452;42.780;23.116;2024-02-21T06:04:36;94952.88;;;3.26;100.00
55590;BME280;41452;42.780;23.116;2024-02-21T06:07:01;94979.38;;;3.45;100.00
55590;BME280;41452;42.780;23.116;2024-02-21T06:09:27;94965.47;;;3.37;100.00
55590;BME280;41452;42.780;23.116;2024-02-21T06:11:53;94985.69;;;3.50;100.00
55590;BME280;41452;42.780;23.116;2024-02-21T06:14:19;94978.56;;;3.44;100.00
55590;BME280;41452;42.780;23.116;2024-02-21T06:16:45;95009.47;;;3.62;100.00
55590;BME280;41452;42.780;23.116;2024-02-21T06:19:10;95005.59;;;3.66;100.00
55590;BME280;41452;42.780;23.116;2024-02-21T06:21:36;95003.25;;;3.71;100.00
55590;BME280;41452;42.780;23.116;2024-02-21T06:24:02;95010.38;;;3.77;100.00
55590;BME280;41452;42.780;23.116;2024-02-21T06:26:27;94995.13;;;3.74;100.00
55590;BME280;41452;42.780;23.116;2024-02-21T06:28:52;95003.81;;;3.90;100.00
55590;BME280;41452;42.780;23.116;2024-02-21T06:31:18;94994.75;;;3.86;100.00
55590;BME280;41452;42.780;23.116;2024-02-21T06:33:43;95009.22;;;4.03;100.00
55590;BME280;41452;42.780;23.116;2024-02-21T06:36:09;94982.69;;;3.93;100.00
55590;BME280;41452;42.780;23.116;2024-02-21T06:38:34;95011.72;;;4.19;100.00
55590;BME280;41452;42.780;23.116;2024-02-21T06:40:59;94990.31;;;4.17;100.00
55590;BME280;41452;42.780;23.116;2024-02-21T06:43:26;94992.31;;;4.30;100.00
55590;BME280;41452;42.780;23.116;2024-02-21T06:45:51;95024.00;;;4.49;100.00
55590;BME280;41452;42.780;23.116;2024-02-21T06:48:17;95029.31;;;4.55;100.00
55590;BME280;41452;42.780;23.116;2024-02-21T06:50:43;95004.38;;;4.46;100.00
55590;BME280;41452;42.780;23.116;2024-02-21T06:53:08;95026.28;;;4.67;100.00
55590;BME280;41452;42.780;23.116;2024-02-21T06:55:34;95027.56;;;4.71;100.00
55590;BME280;41452;42.780;23.116;2024-02-21T06:57:59;95031.44;;;4.75;100.00
55590;BME280;41452;42.780;23.116;2024-02-21T07:00:24;94993.41;;;4.51;100.00
55590;BME280;41452;42.780;23.116;2024-02-21T07:02:51;95025.31;;;4.83;100.00
55590;BME280;41452;42.780;23.116;2024-02-21T07:05:17;95015.34;;;4.71;100.00
55590;BME280;41452;42.780;23.116;2024-02-21T07:07:42;95030.47;;;4.91;100.00
55590;BME280;41452;42.780;23.116;2024-02-21T07:10:07;95024.25;;;4.92;100.00
55590;BME280;41452;42.780;23.116;2024-02-21T07:12:33;95015.03;;;4.89;100.00
55590;BME280;41452;42.780;23.116;2024-02-21T07:15:00;95040.88;;;5.06;100.00
55590;BME280;41452;42.780;23.116;2024-02-21T07:17:25;95035.78;;;4.98;100.00
55590;BME280;41452;42.780;23.116;2024-02-21T07:19:51;95012.69;;;4.94;100.00
55590;BME280;41452;42.780;23.116;2024-02-21T07:22:16;95021.13;;;4.97;100.00
55590;BME280;41452;42.780;23.116;2024-02-21T07:24:41;95042.16;;;5.10;100.00
55590;BME280;41452;42.780;23.116;2024-02-21T07:27:07;95005.22;;;4.91;100.00
55590;BME280;41452;42.780;23.116;2024-02-21T07:29:32;95045.91;;;5.07;100.00
55590;BME280;41452;42.780;23.116;2024-02-21T07:31:57;95020.69;;;4.93;100.00
55590;BME280;41452;42.780;23.116;2024-02-21T07:34:23;95021.22;;;5.03;100.00
55590;BME280;41452;42.780;23.116;2024-02-21T07:36:48;95039.09;;;5.21;100.00
55590;BME280;41452;42.780;23.116;2024-02-21T07:39:13;95032.81;;;5.30;100.00
55590;BME280;41452;42.780;23.116;2024-02-21T07:41:39;95030.91;;;5.39;100.00
55590;BME280;41452;42.780;23.116;2024-02-21T07:44:06;95039.44;;;5.48;100.00
55590;BME280;41452;42.780;23.116;2024-02-21T07:46:31;95025.06;;;5.52;100.00
55590;BME280;41452;42.780;23.116;2024-02-21T07:48:57;94989.34;;;5.16;100.00
55590;BME280;41452;42.780;23.116;2024-02-21T07:51:22;95020.06;;;5.36;100.00
55590;BME280;41452;42.780;23.116;2024-02-21T07:53:47;94956.84;;;5.12;100.00
55590;BME280;41452;42.780;23.116;2024-02-21T07:56:14;95025.22;;;5.65;100.00
55590;BME280;41452;42.780;23.116;2024-02-21T07:58:41;95024.78;;;5.62;100.00
55590;BME280;41452;42.780;23.116;2024-02-21T08:01:06;95028.91;;;5.71;100.00
55590;BME280;41452;42.780;23.116;2024-02-21T08:03:32;95025.38;;;5.79;100.00
55590;BME280;41452;42.780;23.116;2024-02-21T08:05:57;95025.75;;;5.76;100.00
55590;BME280;41452;42.780;23.116;2024-02-21T08:08:23;95032.13;;;5.73;100.00
55590;BME280;41452;42.780;23.116;2024-02-21T08:10:51;95027.44;;;5.68;100.00
55590;BME280;41452;42.780;23.116;2024-02-21T08:13:16;95034.91;;;5.71;100.00
55590;BME280;41452;42.780;23.116;2024-02-21T08:15:42;95011.81;;;5.68;100.00
55590;BME280;41452;42.780;23.116;2024-02-21T08:18:08;94960.31;;;5.34;100.00
55590;BME280;41452;42.780;23.116;2024-02-21T08:20:33;95009.03;;;5.70;100.00
55590;BME280;41452;42.780;23.116;2024-02-21T08:22:58;94993.06;;;5.58;100.00
55590;BME280;41452;42.780;23.116;2024-02-21T08:25:24;95013.69;;;5.75;100.00
55590;BME280;41452;42.780;23.116;2024-02-21T08:27:49;95025.09;;;5.88;100.00
55590;BME280;41452;42.780;23.116;2024-02-21T08:30:16;95034.16;;;5.93;100.00
55590;BME280;41452;42.780;23.116;2024-02-21T08:32:42;95005.53;;;5.63;100.00
55590;BME280;41452;42.780;23.116;2024-02-21T08:35:08;95006.81;;;5.67;100.00
55590;BME280;41452;42.780;23.116;2024-02-21T08:37:33;95044.31;;;5.87;100.00
55590;BME280;41452;42.780;23.116;2024-02-21T08:39:58;95003.19;;;5.68;100.00
55590;BME280;41452;42.780;23.116;2024-02-21T08:42:24;95041.00;;;5.94;100.00
55590;BME280;41452;42.780;23.116;2024-02-21T08:44:49;95011.00;;;5.83;100.00
55590;BME280;41452;42.780;23.116;2024-02-21T08:47:15;95047.81;;;6.09;100.00
55590;BME280;41452;42.780;23.116;2024-02-21T08:49:40;95043.75;;;6.07;100.00
55590;BME280;41452;42.780;23.116;2024-02-21T08:52:06;94967.47;;;5.62;100.00
55590;BME280;41452;42.780;23.116;2024-02-21T08:54:32;95032.34;;;6.08;100.00
55590;BME280;41452;42.780;23.116;2024-02-21T08:57:00;94988.34;;;5.83;100.00
55590;BME280;41452;42.780;23.116;2024-02-21T08:59:25;95032.28;;;6.23;100.00
55590;BME280;41452;42.780;23.116;2024-02-21T09:01:51;95007.69;;;6.11;100.00
55590;BME280;41452;42.780;23.116;2024-02-21T09:04:19;94993.84;;;6.10;100.00
55590;BME280;41452;42.780;23.116;2024-02-21T09:06:45;95021.22;;;6.42;100.00
55590;BME280;41452;42.780;23.116;2024-02-21T09:09:11;95028.59;;;6.60;100.00
55590;BME280;41452;42.780;23.116;2024-02-21T09:11:37;95031.25;;;6.67;100.00
55590;BME280;41452;42.780;23.116;2024-02-21T09:14:03;95025.28;;;6.73;100.00
55590;BME280;41452;42.780;23.116;2024-02-21T09:16:31;95012.22;;;6.73;100.00
55590;BME280;41452;42.780;23.116;2024-02-21T09:18:56;95023.97;;;6.84;100.00
55590;BME280;41452;42.780;23.116;2024-02-21T09:21:22;95026.84;;;6.96;97.83
55590;BME280;41452;42.780;23.116;2024-02-21T09:23:48;95019.19;;;6.94;97.46
55590;BME280;41452;42.780;23.116;2024-02-21T09:26:13;95004.78;;;6.70;99.24
55590;BME280;41452;42.780;23.116;2024-02-21T09:28:41;94989.63;;;6.59;96.38
55590;BME280;41452;42.780;23.116;2024-02-21T09:31:06;95002.13;;;6.63;97.79
55590;BME280;41452;42.780;23.116;2024-02-21T09:33:32;94983.75;;;6.50;95.88
55590;BME280;41452;42.780;23.116;2024-02-21T09:35:57;94978.88;;;6.69;97.88
55590;BME280;41452;42.780;23.116;2024-02-21T09:38:23;95024.09;;;7.04;99.77
55590;BME280;41452;42.780;23.116;2024-02-21T09:41:08;95010.50;;;6.87;100.00
55590;BME280;41452;42.780;23.116;2024-02-21T09:43:40;95023.50;;;7.02;100.00
55590;BME280;41452;42.780;23.116;2024-02-21T09:46:05;95018.50;;;7.07;99.78
55590;BME280;41452;42.780;23.116;2024-02-21T09:51:24;95024.47;;;7.01;96.46
55590;BME280;41452;42.780;23.116;2024-02-21T09:53:54;94987.25;;;6.92;97.34
55590;BME280;41452;42.780;23.116;2024-02-21T09:56:19;95029.44;;;7.24;95.03
55590;BME280;41452;42.780;23.116;2024-02-21T09:58:46;95024.59;;;7.21;96.43
55590;BME280;41452;42.780;23.116;2024-02-21T10:01:12;95008.13;;;7.20;95.47
55590;BME280;41452;42.780;23.116;2024-02-21T10:03:38;95008.91;;;7.14;95.34
55590;BME280;41452;42.780;23.116;2024-02-21T10:06:03;94947.84;;;6.80;95.33
55590;BME280;41452;42.780;23.116;2024-02-21T10:08:29;95000.09;;;7.22;93.91
55590;BME280;41452;42.780;23.116;2024-02-21T10:10:54;94986.47;;;7.27;94.14
55590;BME280;41452;42.780;23.116;2024-02-21T10:13:29;94984.69;;;7.40;90.89
55590;BME280;41452;42.780;23.116;2024-02-21T10:16:05;95010.38;;;7.72;88.88
55590;BME280;41452;42.780;23.116;2024-02-21T10:18:31;94957.41;;;7.56;86.27
55590;BME280;41452;42.780;23.116;2024-02-21T10:21:03;94958.09;;;7.78;87.93
55590;BME280;41452;42.780;23.116;2024-02-21T10:23:29;94979.06;;;7.98;85.22
55590;BME280;41452;42.780;23.116;2024-02-21T10:26:04;94988.94;;;8.10;86.55
55590;BME280;41452;42.780;23.116;2024-02-21T10:28:30;94926.09;;;7.70;87.23
55590;BME280;41452;42.780;23.116;2024-02-21T10:30:56;94966.59;;;8.07;84.68
55590;BME280;41452;42.780;23.116;2024-02-21T10:33:21;94973.22;;;8.10;83.64
55590;BME280;41452;42.780;23.116;2024-02-21T10:35:47;94975.84;;;8.10;82.39
55590;BME280;41452;42.780;23.116;2024-02-21T10:38:12;94972.25;;;8.24;84.35
55590;BME280;41452;42.780;23.116;2024-02-21T10:40:38;94974.50;;;8.41;82.16
55590;BME280;41452;42.780;23.116;2024-02-21T10:43:05;94939.03;;;8.31;82.07
55590;BME280;41452;42.780;23.116;2024-02-21T10:45:34;94956.19;;;8.61;83.66
55590;BME280;41452;42.780;23.116;2024-02-21T10:48:22;94942.91;;;8.69;81.37
55590;BME280;41452;42.780;23.116;2024-02-21T10:50:57;94959.00;;;8.66;81.37
55590;BME280;41452;42.780;23.116;2024-02-21T10:56:22;94930.78;;;8.41;76.07
55590;BME280;41452;42.780;23.116;2024-02-21T10:58:50;94905.22;;;8.23;76.57
55590;BME280;41452;42.780;23.116;2024-02-21T11:01:17;94949.34;;;8.46;77.96
55590;BME280;41452;42.780;23.116;2024-02-21T11:03:44;94944.31;;;8.45;78.13
55590;BME280;41452;42.780;23.116;2024-02-21T11:06:13;94947.31;;;8.35;79.54
55590;BME280;41452;42.780;23.116;2024-02-21T11:08:40;94899.97;;;8.10;79.74
55590;BME280;41452;42.780;23.116;2024-02-21T11:11:05;94915.47;;;8.11;79.24
55590;BME280;41452;42.780;23.116;2024-02-21T11:13:32;94943.28;;;8.19;77.27
55590;BME280;41452;42.780;23.116;2024-02-21T11:16:10;94943.28;;;8.32;76.09
55590;BME280;41452;42.780;23.116;2024-02-21T11:18:37;94908.25;;;8.00;79.73
55590;BME280;41452;42.780;23.116;2024-02-21T11:21:03;94900.97;;;7.95;76.62
55590;BME280;41452;42.780;23.116;2024-02-21T11:23:31;94940.25;;;8.29;79.47
55590;BME280;41452;42.780;23.116;2024-02-21T11:26:10;94941.88;;;8.43;80.04
55590;BME280;41452;42.780;23.116;2024-02-21T11:28:36;94849.91;;;7.93;77.82
55590;BME280;41452;42.780;23.116;2024-02-21T11:31:11;94893.53;;;8.26;77.63
55590;BME280;41452;42.780;23.116;2024-02-21T11:33:40;94934.03;;;8.50;77.47
55590;BME280;41452;42.780;23.116;2024-02-21T11:36:06;94904.22;;;8.37;76.89
55590;BME280;41452;42.780;23.116;2024-02-21T11:38:31;94863.75;;;7.93;79.02
55590;BME280;41452;42.780;23.116;2024-02-21T11:40:57;94930.19;;;8.39;78.81
55590;BME280;41452;42.780;23.116;2024-02-21T11:43:23;94907.81;;;8.36;78.41
55590;BME280;41452;42.780;23.116;2024-02-21T12:08:43;94896.97;;;8.19;81.40
55590;BME280;41452;42.780;23.116;2024-02-21T12:11:22;94828.97;;;7.73;83.05
55590;BME280;41452;42.780;23.116;2024-02-21T12:14:08;94889.72;;;8.15;83.71
55590;BME280;41452;42.780;23.116;2024-02-21T12:16:34;94891.56;;;8.21;83.98
55590;BME280;41452;42.780;23.116;2024-02-21T12:19:03;94892.75;;;8.25;84.80
55590;BME280;41452;42.780;23.116;2024-02-21T12:21:33;94890.94;;;8.19;84.54
55590;BME280;41452;42.780;23.116;2024-02-21T12:24:25;94888.13;;;8.14;83.00
55590;BME280;41452;42.780;23.116;2024-02-21T12:26:54;94888.53;;;8.11;82.27
55590;BME280;41452;42.780;23.116;2024-02-21T12:29:20;94890.53;;;8.09;82.98
55590;BME280;41452;42.780;23.116;2024-02-21T12:31:46;94895.78;;;8.09;83.24
55590;BME280;41452;42.780;23.116;2024-02-21T12:34:12;94897.97;;;7.98;83.98
55590;BME280;41452;42.780;23.116;2024-02-21T12:36:42;94898.56;;;8.00;84.09
55590;BME280;41452;42.780;23.116;2024-02-21T12:39:08;94876.84;;;7.87;85.13
55590;BME280;41452;42.780;23.116;2024-02-21T12:41:35;94892.94;;;8.04;86.29
55590;BME280;41452;42.780;23.116;2024-02-21T12:44:04;94876.47;;;8.03;85.93
55590;BME280;41452;42.780;23.116;2024-02-21T12:46:30;94884.91;;;8.12;87.13
55590;BME280;41452;42.780;23.116;2024-02-21T12:48:55;94880.47;;;8.06;85.75
55590;BME280;41452;42.780;23.116;2024-02-21T12:51:20;94826.13;;;7.74;84.42
55590;BME280;41452;42.780;23.116;2024-02-21T12:53:47;94844.25;;;7.89;84.07
55590;BME280;41452;42.780;23.116;2024-02-21T12:56:15;94843.63;;;7.94;81.23
55590;BME280;41452;42.780;23.116;2024-02-21T12:58:40;94875.25;;;8.12;83.26
55590;BME280;41452;42.780;23.116;2024-02-21T13:01:05;94873.22;;;8.21;82.63
55590;BME280;41452;42.780;23.116;2024-02-21T13:03:31;94865.19;;;8.23;84.44
55590;BME280;41452;42.780;23.116;2024-02-21T13:05:56;94861.78;;;8.15;82.97
55590;BME280;41452;42.780;23.116;2024-02-21T13:08:21;94805.03;;;7.76;83.50
55590;BME280;41452;42.780;23.116;2024-02-21T13:10:48;94861.78;;;8.15;84.35
55590;BME280;41452;42.780;23.116;2024-02-21T13:13:14;94847.66;;;8.10;84.14
55590;BME280;41452;42.780;23.116;2024-02-21T13:15:39;94844.06;;;8.11;85.21
55590;BME280;41452;42.780;23.116;2024-02-21T13:18:08;94769.81;;;7.58;84.27
55590;BME280;41452;42.780;23.116;2024-02-21T13:20:33;94859.94;;;8.16;86.37